GABS

Senou Airport

Senou, Mali
TAF GABS 251716Z 2518/2624 06010KT 8000 NSC
Issued Valid From Valid To
Apr-25 @ 17:16 UTC
(13 hours ago)
Apr-25 @ 18:00 UTC
(12 hours ago)
Apr-27 @ 00:00 UTC
(in 18 hours)
Apr-25 @ 18:00 to Apr-27 @ 00:00
TAF GABS 251716Z 2518/2624 06010KT 8000 NSC
Wind Visibility Clouds
60° at 10 knots 7,998 meters
  • No significant clouds
TAF GABS 251716Z 2518/2624 06010KT 8000 NSC
Issued Apr-25 @ 17:16 UTC
(13 hours ago)
Valid From Apr-25 @ 18:00 UTC
(12 hours ago)
Valid To Apr-27 @ 00:00 UTC
(in 18 hours)
Apr-25 @ 18:00 - Apr-27 @ 00:00
Wind Visibility
60° at 10 knots 7,998 meters
Clouds
  • No significant clouds